createdAt,value
2023-01-15T00:02:22.317Z,0.47
2023-01-15T00:04:51.521Z,0.30
2023-01-15T00:07:21.833Z,0.70
2023-01-15T00:09:52.182Z,0.70
2023-01-15T00:12:19.065Z,0.40
2023-01-15T00:14:46.505Z,0.88
2023-01-15T00:17:13.396Z,0.73
2023-01-15T00:19:40.214Z,0.30
2023-01-15T00:22:07.063Z,0.82
2023-01-15T00:25:09.225Z,0.77
2023-01-15T00:27:38.871Z,0.32
2023-01-15T00:30:07.793Z,0.50
2023-01-15T00:32:42.355Z,0.65
2023-01-15T00:35:15.031Z,0.77
2023-01-15T00:37:41.947Z,1.20
2023-01-15T00:40:09.635Z,0.60
2023-01-15T00:42:36.420Z,0.55
2023-01-15T00:45:10.652Z,0.50
2023-01-15T00:47:39.747Z,0.95
2023-01-15T00:50:08.897Z,0.60
2023-01-15T00:52:35.856Z,0.70
2023-01-15T00:55:02.792Z,0.63
2023-01-15T00:57:29.727Z,0.40
2023-01-15T00:59:56.580Z,0.45
2023-01-15T01:02:23.437Z,1.00
2023-01-15T01:04:50.623Z,0.47
2023-01-15T01:07:18.479Z,0.38
2023-01-15T01:09:48.582Z,0.85
2023-01-15T01:12:15.488Z,0.90
2023-01-15T01:14:43.621Z,0.60
2023-01-15T01:17:10.480Z,0.60
2023-01-15T01:19:40.747Z,0.55
2023-01-15T01:22:14.000Z,0.82
2023-01-15T01:24:53.077Z,0.43
2023-01-15T01:27:19.877Z,0.70
2023-01-15T01:29:48.771Z,0.65
2023-01-15T01:32:15.740Z,0.47
2023-01-15T01:34:42.690Z,0.50
2023-01-15T01:37:09.541Z,1.85
2023-01-15T01:39:36.308Z,0.65
2023-01-15T01:42:03.119Z,0.30
2023-01-15T01:44:33.021Z,0.77
2023-01-15T01:47:01.635Z,0.40
2023-01-15T01:49:28.905Z,0.43
2023-01-15T01:52:04.058Z,0.57
2023-01-15T01:54:33.091Z,0.47
2023-01-15T01:57:00.701Z,0.82
2023-01-15T01:59:34.049Z,0.60
2023-01-15T02:02:01.220Z,0.60
2023-01-15T02:04:30.537Z,0.47
2023-01-15T02:06:59.992Z,0.50
2023-01-15T02:09:26.872Z,0.28
2023-01-15T02:11:58.271Z,0.77
2023-01-15T02:14:37.227Z,0.63
2023-01-15T02:17:32.090Z,0.65
2023-01-15T02:20:15.640Z,0.73
2023-01-15T02:23:25.100Z,0.63
2023-01-15T02:26:36.302Z,0.73
2023-01-15T02:29:08.674Z,0.60
2023-01-15T02:31:38.800Z,0.43
2023-01-15T02:34:12.426Z,0.95
2023-01-15T02:36:44.239Z,0.50
2023-01-15T02:39:15.295Z,0.60
2023-01-15T02:41:51.785Z,1.60
2023-01-15T02:44:21.465Z,0.35
2023-01-15T02:46:49.107Z,0.70
2023-01-15T02:49:27.225Z,0.80
2023-01-15T02:52:05.136Z,0.50
2023-01-15T02:54:59.072Z,0.75
2023-01-15T02:57:30.151Z,0.65
2023-01-15T02:59:59.977Z,0.55
2023-01-15T03:02:33.811Z,0.80
2023-01-15T03:05:34.594Z,0.80
2023-01-15T03:08:04.005Z,0.40
2023-01-15T03:10:43.450Z,1.75
2023-01-15T03:13:20.765Z,0.43
2023-01-15T03:16:20.111Z,0.52
2023-01-15T03:18:55.628Z,0.85
2023-01-15T03:21:51.512Z,1.42
2023-01-15T03:24:30.363Z,0.35
2023-01-15T03:27:00.708Z,0.35
2023-01-15T03:32:03.594Z,0.52
2023-01-15T03:34:51.968Z,0.98
2023-01-15T03:37:20.872Z,0.65
2023-01-15T03:39:58.758Z,0.60
2023-01-15T03:42:43.599Z,1.00
2023-01-15T03:45:28.769Z,0.70
2023-01-15T03:47:55.514Z,1.00
2023-01-15T03:50:44.036Z,1.20
2023-01-15T03:53:22.007Z,0.80
2023-01-15T03:56:00.715Z,0.95
2023-01-15T03:58:44.254Z,1.13
2023-01-15T04:01:15.004Z,1.48
2023-01-15T04:03:43.656Z,1.15
2023-01-15T04:06:11.050Z,1.00
2023-01-15T04:08:43.587Z,1.00
2023-01-15T04:11:10.554Z,0.52
2023-01-15T04:13:42.956Z,0.95
2023-01-15T04:16:10.903Z,0.60
2023-01-15T04:18:39.030Z,0.57
2023-01-15T04:21:06.057Z,1.38
2023-01-15T04:23:32.863Z,1.30
2023-01-15T04:25:59.677Z,0.93
2023-01-15T04:28:26.676Z,1.27
2023-01-15T04:30:56.668Z,0.52
2023-01-15T04:33:28.218Z,0.40
2023-01-15T04:35:57.431Z,0.90
2023-01-15T04:38:25.241Z,0.55
2023-01-15T04:41:10.592Z,0.93
2023-01-15T04:43:58.742Z,0.70
2023-01-15T04:46:25.927Z,0.50
2023-01-15T04:48:52.972Z,1.02
2023-01-15T04:51:19.813Z,0.47
2023-01-15T04:53:46.588Z,1.13
2023-01-15T04:56:13.504Z,0.60
2023-01-15T04:58:40.412Z,0.95
2023-01-15T05:01:15.216Z,0.55
2023-01-15T05:03:42.863Z,1.38
2023-01-15T05:06:10.887Z,0.65
2023-01-15T05:08:50.070Z,1.40
2023-01-15T05:11:21.370Z,0.55
2023-01-15T05:13:48.251Z,0.75
2023-01-15T05:16:21.215Z,1.05
2023-01-15T05:18:48.572Z,0.28
2023-01-15T05:21:19.111Z,0.35
2023-01-15T05:23:46.034Z,1.08
2023-01-15T05:26:13.645Z,0.50
2023-01-15T05:28:40.921Z,0.77
2023-01-15T05:31:13.586Z,0.47
2023-01-15T05:33:41.439Z,0.52
2023-01-15T05:36:11.508Z,0.52
2023-01-15T05:38:39.006Z,1.13
2023-01-15T05:41:41.407Z,0.80
2023-01-15T05:44:10.566Z,0.88
2023-01-15T05:46:40.229Z,0.98
2023-01-15T05:49:10.399Z,0.98
2023-01-15T05:51:38.346Z,0.40
2023-01-15T05:54:06.989Z,0.55
2023-01-15T05:56:38.161Z,0.90
2023-01-15T05:59:05.533Z,0.47
2023-01-15T06:01:32.449Z,0.50
2023-01-15T06:04:01.116Z,0.93
2023-01-15T06:06:32.711Z,0.43
2023-01-15T06:09:00.039Z,0.40
2023-01-15T06:11:26.866Z,0.30
2023-01-15T06:13:58.729Z,0.55
2023-01-15T06:16:33.320Z,0.35
2023-01-15T06:19:03.991Z,0.45
2023-01-15T06:21:32.504Z,0.35
2023-01-15T06:23:59.766Z,0.50
2023-01-15T06:26:27.128Z,0.88
2023-01-15T06:28:54.221Z,0.60
2023-01-15T06:31:23.163Z,0.60
2023-01-15T06:33:50.870Z,0.90
2023-01-15T06:36:23.065Z,0.50
2023-01-15T06:38:55.028Z,0.63
2023-01-15T06:41:43.596Z,0.63
2023-01-15T06:44:34.682Z,1.55
2023-01-15T06:47:20.841Z,0.93
2023-01-15T06:49:52.772Z,1.38
2023-01-15T06:52:19.681Z,0.50
2023-01-15T06:54:46.793Z,0.73
2023-01-15T06:57:16.029Z,0.63
2023-01-15T06:59:42.941Z,0.30
2023-01-15T07:02:13.577Z,1.20
2023-01-15T07:04:40.482Z,1.90
2023-01-15T07:07:07.273Z,0.52
2023-01-15T07:09:34.124Z,1.10
2023-01-15T07:12:00.995Z,0.60
2023-01-15T07:14:32.057Z,0.75
2023-01-15T07:16:59.321Z,0.70
2023-01-15T07:19:27.334Z,1.40
2023-01-15T07:21:54.454Z,1.27
2023-01-15T07:24:21.471Z,1.40
2023-01-15T07:26:48.338Z,0.38
2023-01-15T07:29:15.768Z,0.32
2023-01-15T07:31:42.827Z,0.68
2023-01-15T07:34:10.128Z,0.40
2023-01-15T07:36:37.783Z,0.98
2023-01-15T07:39:09.574Z,0.45
2023-01-15T07:41:58.499Z,0.70
2023-01-15T07:44:43.914Z,0.45
2023-01-15T07:47:43.450Z,0.38
2023-01-15T07:50:16.524Z,0.80
2023-01-15T07:52:43.464Z,1.73
2023-01-15T07:55:12.653Z,0.57
2023-01-15T07:57:41.041Z,0.30
2023-01-15T08:00:14.501Z,0.82
2023-01-15T08:02:41.885Z,0.40
2023-01-15T08:05:10.315Z,1.50
2023-01-15T08:07:50.836Z,1.45
2023-01-15T08:10:18.308Z,0.73
2023-01-15T08:13:03.817Z,0.77
2023-01-15T08:15:38.240Z,0.57
2023-01-15T08:18:05.605Z,0.30
2023-01-15T08:20:34.471Z,1.58
2023-01-15T08:23:01.730Z,0.50
2023-01-15T08:25:30.997Z,0.82
2023-01-15T08:28:03.240Z,0.43
2023-01-15T08:30:30.425Z,0.52
2023-01-15T08:33:07.202Z,0.45
2023-01-15T08:35:34.901Z,0.40
2023-01-15T08:38:09.584Z,0.88
2023-01-15T08:40:59.174Z,0.57
2023-01-15T08:43:27.545Z,0.22
2023-01-15T08:45:59.467Z,0.50
2023-01-15T08:48:27.775Z,0.80
2023-01-15T08:50:54.618Z,0.88
2023-01-15T08:53:23.715Z,0.60
2023-01-15T08:55:53.700Z,0.80
2023-01-15T08:58:34.894Z,0.55
2023-01-15T09:01:15.824Z,0.88
2023-01-15T09:03:46.611Z,0.45
2023-01-15T09:06:22.655Z,0.40
2023-01-15T09:09:12.278Z,1.70
2023-01-15T09:14:58.154Z,0.47
2023-01-15T09:17:36.186Z,0.32
2023-01-15T09:20:03.774Z,0.30
2023-01-15T09:22:32.975Z,0.47
2023-01-15T09:34:03.032Z,0.10
2023-01-15T09:36:35.147Z,0.20
2023-01-15T09:39:04.033Z,0.03
2023-01-15T09:42:00.617Z,0.20
2023-01-15T09:44:38.827Z,0.15
2023-01-15T09:47:30.427Z,0.47
2023-01-15T09:50:00.361Z,0.40
2023-01-15T09:52:43.230Z,0.63
2023-01-15T09:55:15.504Z,0.75
2023-01-15T09:57:43.253Z,0.55
2023-01-15T10:00:19.647Z,0.30
2023-01-15T10:03:07.168Z,0.50
2023-01-15T10:05:44.709Z,0.20
2023-01-15T10:08:43.266Z,0.47
2023-01-15T10:11:16.282Z,0.55
2023-01-15T10:14:15.663Z,0.70
2023-01-15T10:16:42.505Z,1.10
2023-01-15T10:19:10.684Z,0.32
2023-01-15T10:22:04.839Z,0.50
2023-01-15T10:24:34.560Z,0.38
2023-01-15T10:27:05.241Z,0.57
2023-01-15T10:30:13.590Z,0.47
2023-01-15T10:33:01.993Z,0.63
2023-01-15T10:36:05.477Z,0.50
2023-01-15T10:38:40.500Z,0.68
2023-01-15T10:41:23.408Z,0.20
2023-01-15T10:43:58.243Z,0.30
2023-01-15T10:46:33.770Z,0.60
2023-01-15T10:49:06.285Z,0.65
2023-01-15T10:51:57.506Z,0.85
2023-01-15T10:54:32.112Z,0.80
2023-01-15T10:57:15.314Z,0.70
2023-01-15T10:59:58.086Z,0.50
2023-01-15T11:02:43.207Z,1.02
2023-01-15T11:05:30.078Z,0.82
2023-01-15T11:10:45.217Z,0.77
2023-01-15T11:13:39.715Z,0.32
2023-01-15T11:16:36.483Z,0.82
2023-01-15T11:19:24.970Z,0.65
2023-01-15T11:21:53.601Z,0.60
2023-01-15T11:24:20.992Z,0.80
2023-01-15T11:26:54.848Z,0.80
2023-01-15T11:29:34.469Z,0.93
2023-01-15T11:32:01.362Z,0.43
2023-01-15T11:34:28.222Z,0.82
2023-01-15T11:37:03.632Z,0.68
2023-01-15T11:39:31.380Z,0.73
2023-01-15T11:42:22.621Z,0.43
2023-01-15T11:45:16.679Z,0.98
2023-01-15T11:48:12.625Z,0.43
2023-01-15T11:50:56.347Z,0.80
2023-01-15T11:53:28.204Z,1.13
2023-01-15T11:56:02.830Z,0.55
2023-01-15T11:58:34.312Z,0.45
2023-01-15T12:01:01.756Z,1.35
2023-01-15T12:03:35.246Z,0.60
2023-01-15T12:06:06.645Z,0.88
2023-01-15T12:09:02.308Z,0.57
2023-01-15T12:12:04.181Z,0.82
2023-01-15T12:14:46.461Z,1.33
2023-01-15T12:17:37.542Z,0.73
2023-01-15T12:20:16.806Z,1.10
2023-01-15T12:22:43.558Z,2.58
2023-01-15T12:25:26.591Z,0.90
2023-01-15T12:27:58.036Z,0.65
2023-01-15T12:30:47.595Z,0.88
2023-01-15T12:33:39.533Z,1.98
2023-01-15T12:36:20.434Z,1.38
2023-01-15T12:38:59.973Z,1.13
2023-01-15T12:41:58.434Z,0.80
2023-01-15T12:44:52.988Z,1.23
2023-01-15T12:47:26.005Z,0.40
2023-01-15T12:50:14.140Z,0.70
2023-01-15T12:52:46.382Z,0.52
2023-01-15T12:55:22.576Z,0.80
2023-01-15T12:57:57.220Z,0.60
2023-01-15T13:00:41.435Z,0.70
2023-01-15T13:03:28.445Z,0.55
2023-01-15T13:06:01.449Z,1.55
2023-01-15T13:08:59.063Z,1.05
2023-01-15T13:11:26.464Z,1.30
2023-01-15T13:13:59.160Z,0.85
2023-01-15T13:16:46.180Z,1.23
2023-01-15T13:19:28.133Z,0.38
2023-01-15T13:21:59.888Z,0.82
2023-01-15T13:24:57.065Z,1.00
2023-01-15T13:27:49.501Z,0.30
2023-01-15T13:30:41.194Z,0.98
2023-01-15T13:33:26.938Z,0.43
2023-01-15T13:36:15.456Z,0.60
2023-01-15T13:38:51.148Z,0.55
2023-01-15T13:41:43.681Z,0.60
2023-01-15T13:44:20.058Z,0.75
2023-01-15T13:46:57.696Z,0.60
2023-01-15T13:49:33.118Z,2.03
2023-01-15T13:52:04.556Z,1.45
2023-01-15T13:54:36.198Z,0.88
2023-01-15T13:57:24.100Z,0.50
2023-01-15T13:59:51.034Z,0.52
2023-01-15T14:02:26.746Z,0.60
2023-01-15T14:04:54.393Z,0.65
2023-01-15T14:07:31.141Z,1.00
2023-01-15T14:10:24.969Z,0.82
2023-01-15T14:13:10.320Z,1.52
2023-01-15T14:15:52.696Z,0.55
2023-01-15T14:18:40.826Z,0.60
2023-01-15T14:21:30.646Z,0.30
2023-01-15T14:24:16.501Z,0.90
2023-01-15T14:27:02.361Z,0.52
2023-01-15T14:29:41.172Z,0.77
2023-01-15T14:32:26.328Z,0.73
2023-01-15T14:34:59.262Z,0.60
2023-01-15T14:37:47.903Z,1.33
2023-01-15T14:40:24.711Z,0.63
2023-01-15T14:43:04.959Z,0.40
2023-01-15T14:45:42.447Z,0.52
2023-01-15T14:48:28.046Z,0.47
2023-01-15T14:51:07.814Z,0.32
2023-01-15T14:53:43.039Z,0.10
2023-01-15T14:56:23.755Z,0.10
2023-01-15T14:59:08.738Z,0.20
2023-01-15T15:01:47.965Z,0.28
2023-01-15T15:04:37.376Z,0.08
2023-01-15T15:07:11.389Z,0.13
2023-01-15T15:09:50.501Z,0.10
2023-01-15T15:12:35.636Z,0.08
2023-01-15T15:15:13.761Z,0.30
2023-01-15T15:18:01.767Z,0.10
2023-01-15T15:20:58.340Z,0.15
2023-01-15T15:23:34.315Z,1.30
2023-01-15T15:26:17.485Z,0.30
2023-01-15T15:28:56.013Z,0.10
2023-01-15T15:31:26.362Z,0.73
2023-01-15T15:33:55.306Z,0.38
2023-01-15T15:36:24.660Z,0.38
2023-01-15T15:39:15.956Z,0.47
2023-01-15T15:42:05.107Z,0.32
2023-01-15T15:45:01.072Z,0.47
2023-01-15T15:47:46.465Z,0.50
2023-01-15T15:50:26.125Z,0.60
2023-01-15T15:52:53.712Z,0.30
2023-01-15T15:55:22.732Z,0.47
2023-01-15T15:57:54.583Z,0.70
2023-01-15T16:00:33.700Z,0.30
2023-01-15T16:03:07.875Z,0.52
2023-01-15T16:05:34.892Z,1.30
2023-01-15T16:08:29.556Z,0.40
2023-01-15T16:11:00.211Z,0.73
2023-01-15T16:13:35.779Z,0.88
2023-01-15T16:16:05.536Z,0.50
2023-01-15T16:18:44.564Z,0.60
2023-01-15T16:21:27.885Z,0.38
2023-01-15T16:24:04.000Z,0.20
2023-01-15T16:26:48.201Z,0.03
2023-01-15T16:29:21.473Z,0.70
2023-01-15T16:31:48.721Z,0.88
2023-01-15T16:34:29.140Z,0.60
2023-01-15T16:36:56.528Z,0.75
2023-01-15T16:39:41.877Z,0.88
2023-01-15T16:42:27.753Z,0.70
2023-01-15T16:44:57.961Z,0.57
2023-01-15T16:47:31.819Z,0.70
2023-01-15T16:50:23.939Z,0.38
2023-01-15T16:52:56.600Z,0.45
2023-01-15T16:55:41.845Z,0.30
2023-01-15T16:58:17.296Z,0.30
2023-01-15T17:00:50.869Z,0.85
2023-01-15T17:03:26.209Z,0.20
2023-01-15T17:06:20.553Z,0.40
2023-01-15T17:08:49.282Z,0.17
2023-01-15T17:11:27.164Z,0.25
2023-01-15T17:14:24.453Z,0.40
2023-01-15T17:17:23.387Z,0.40
2023-01-15T17:19:51.680Z,0.50
2023-01-15T17:22:30.389Z,0.30
2023-01-15T17:24:59.219Z,0.40
2023-01-15T17:27:27.667Z,0.20
2023-01-15T17:29:54.650Z,0.20
2023-01-15T17:32:30.614Z,0.47
2023-01-15T17:34:57.862Z,1.38
2023-01-15T17:37:24.923Z,0.22
2023-01-15T17:39:51.773Z,0.60
2023-01-15T17:42:19.880Z,1.05
2023-01-15T17:44:46.890Z,0.82
2023-01-15T17:47:14.165Z,0.47
2023-01-15T17:49:41.043Z,0.60
2023-01-15T17:52:18.465Z,0.70
2023-01-15T17:55:04.078Z,0.43
2023-01-15T17:57:49.574Z,0.50
2023-01-15T18:00:37.289Z,0.88
2023-01-15T18:03:23.258Z,1.27
2023-01-15T18:05:52.214Z,0.57
2023-01-15T18:08:19.649Z,1.00
2023-01-15T18:10:46.496Z,0.77
2023-01-15T18:13:13.661Z,1.08
2023-01-15T18:15:40.579Z,0.40
2023-01-15T18:18:07.439Z,0.90
2023-01-15T18:20:34.326Z,0.38
2023-01-15T18:23:01.270Z,1.70
2023-01-15T18:25:28.352Z,0.28
2023-01-15T18:27:55.247Z,0.47
2023-01-15T18:30:22.208Z,0.45
2023-01-15T18:32:49.389Z,0.70
2023-01-15T18:35:17.298Z,1.05
2023-01-15T18:37:44.568Z,1.00
2023-01-15T18:40:12.179Z,0.90
2023-01-15T18:42:58.477Z,0.90
2023-01-15T18:45:44.577Z,0.80
2023-01-15T18:48:11.543Z,0.50
2023-01-15T18:50:38.413Z,0.50
2023-01-15T18:53:05.284Z,0.77
2023-01-15T18:55:32.195Z,0.43
2023-01-15T18:57:59.969Z,0.82
2023-01-15T19:00:26.930Z,0.63
2023-01-15T19:02:53.828Z,0.40
2023-01-15T19:05:20.931Z,0.30
2023-01-15T19:07:48.063Z,0.35
2023-01-15T19:10:16.384Z,0.75
2023-01-15T19:12:44.709Z,0.60
2023-01-15T19:15:33.636Z,1.10
2023-01-15T19:18:19.056Z,0.40
2023-01-15T19:20:46.011Z,1.08
2023-01-15T19:23:12.894Z,1.98
2023-01-15T19:25:45.813Z,0.60
2023-01-15T19:28:19.455Z,0.60
2023-01-15T19:31:06.594Z,0.47
2023-01-15T19:33:34.545Z,0.25
2023-01-15T19:36:01.814Z,0.55
2023-01-15T19:38:28.985Z,0.63
2023-01-15T19:41:15.772Z,0.30
2023-01-15T19:44:01.720Z,0.88
2023-01-15T19:46:47.288Z,0.70
2023-01-15T19:49:41.568Z,0.80
2023-01-15T19:52:26.998Z,0.50
2023-01-15T19:54:56.633Z,0.80
2023-01-15T19:57:24.066Z,1.08
2023-01-15T19:59:50.951Z,1.10
2023-01-15T20:02:17.986Z,2.15
2023-01-15T20:04:48.582Z,1.35
2023-01-15T20:07:21.493Z,1.50
2023-01-15T20:09:48.441Z,1.80
2023-01-15T20:12:34.134Z,2.47
2023-01-15T20:15:01.230Z,2.03
2023-01-15T20:17:29.655Z,2.50
2023-01-15T20:19:56.992Z,1.92
2023-01-15T20:22:26.065Z,1.92
2023-01-15T20:24:53.428Z,2.35
2023-01-15T20:27:20.491Z,3.17
2023-01-15T20:29:59.148Z,2.92
2023-01-15T20:32:26.507Z,2.67
2023-01-15T20:34:53.455Z,2.80
2023-01-15T20:37:20.443Z,3.00
2023-01-15T20:39:47.336Z,1.88
2023-01-15T20:42:33.474Z,2.63
2023-01-15T20:45:05.834Z,3.40
2023-01-15T20:47:52.580Z,2.33
2023-01-15T20:50:19.555Z,2.88
2023-01-15T20:53:18.024Z,2.08
2023-01-15T20:55:57.056Z,2.13
2023-01-15T20:58:25.063Z,2.22
2023-01-15T21:00:53.072Z,2.05
2023-01-15T21:03:20.679Z,2.17
2023-01-15T21:05:48.045Z,1.50
2023-01-15T21:08:15.016Z,2.20
2023-01-15T21:10:41.912Z,2.30
2023-01-15T21:13:09.072Z,2.05
2023-01-15T21:15:36.177Z,1.65
2023-01-15T21:18:03.117Z,0.90
2023-01-15T21:20:30.500Z,1.58
2023-01-15T21:22:58.139Z,2.42
2023-01-15T21:25:25.640Z,1.40
2023-01-15T21:27:53.075Z,1.58
2023-01-15T21:30:20.997Z,1.45
2023-01-15T21:32:48.873Z,1.30
2023-01-15T21:35:15.922Z,1.38
2023-01-15T21:37:42.793Z,1.48
2023-01-15T21:40:10.605Z,2.13
2023-01-15T21:42:55.920Z,1.38
2023-01-15T21:45:22.767Z,2.03
2023-01-15T21:47:49.640Z,1.20
2023-01-15T21:50:18.347Z,0.88
2023-01-15T21:52:45.237Z,1.42
2023-01-15T21:55:15.063Z,1.00
2023-01-15T21:57:42.001Z,0.77
2023-01-15T22:00:10.905Z,1.08
2023-01-15T22:02:38.032Z,1.83
2023-01-15T22:05:05.693Z,0.57
2023-01-15T22:07:32.502Z,1.17
2023-01-15T22:09:59.349Z,1.25
2023-01-15T22:12:26.277Z,1.00
2023-01-15T22:14:54.754Z,1.58
2023-01-15T22:17:21.648Z,1.02
2023-01-15T22:19:51.144Z,0.90
2023-01-15T22:22:18.047Z,0.90
2023-01-15T22:24:44.992Z,0.95
2023-01-15T22:27:16.019Z,1.10
2023-01-15T22:29:43.628Z,0.75
2023-01-15T22:32:13.150Z,0.80
2023-01-15T22:34:40.284Z,0.82
2023-01-15T22:37:07.407Z,0.90
2023-01-15T22:39:34.524Z,1.05
2023-01-15T22:42:20.333Z,0.68
2023-01-15T22:44:50.047Z,0.95
2023-01-15T22:47:18.814Z,1.33
2023-01-15T22:49:45.706Z,0.80
2023-01-15T22:52:12.668Z,0.63
2023-01-15T22:54:39.540Z,1.63
2023-01-15T22:57:06.499Z,1.10
2023-01-15T22:59:33.375Z,0.93
2023-01-15T23:02:00.376Z,0.88
2023-01-15T23:04:29.950Z,1.00
2023-01-15T23:06:57.035Z,0.65
2023-01-15T23:09:27.388Z,0.73
2023-01-15T23:11:54.364Z,0.77
2023-01-15T23:14:21.635Z,1.02
2023-01-15T23:16:49.096Z,0.77
2023-01-15T23:19:16.934Z,0.90
2023-01-15T23:21:44.022Z,1.00
2023-01-15T23:24:11.459Z,0.82
2023-01-15T23:26:39.192Z,0.63
2023-01-15T23:29:06.139Z,0.70
2023-01-15T23:31:33.144Z,0.82
2023-01-15T23:34:01.567Z,0.65
2023-01-15T23:36:28.435Z,1.42
2023-01-15T23:38:55.683Z,0.65
2023-01-15T23:41:44.202Z,0.55
2023-01-15T23:44:38.348Z,0.63
2023-01-15T23:47:06.712Z,0.50
2023-01-15T23:49:34.090Z,0.98
2023-01-15T23:52:01.023Z,0.50
2023-01-15T23:54:30.029Z,0.70
2023-01-15T23:56:58.093Z,0.63
2023-01-15T23:59:25.637Z,0.50
